CCV4 weather

Public forecast

Using degrees Celsius for public forecast. Weather courtesy of forecast.io.

Closest aviation weather report (METAR) to Bell Island Airport

Closest report is St. John's International Airport, 9.4 nm (17.4 km) E. Retrieved 2020/08/09 14:00 UTC (60 minutes ago):

CYYT 091400Z 00000KT 15SM FEW020 BKN080 OVC100 17/16 A2994 RMK SC1AC6AC1 SLP140 DENSITY ALT 900FT

Closest aviation forecast (TAF) to Bell Island Airport

Closest forecast is St. John's International Airport, 9.4 nm (17.4 km) E. Retrieved 2020/08/09 12:42 UTC (2 hours ago):

TAF TAF CYYT 091138Z 0912/1012 28005KT P6SM -SHRA SCT010 OVC120 TEMPO 0912/0916 5SM -SHRA BR BKN010 OVC120 PROB30 0912/0916 2SM -SHRA BR OVC005 FM091600 02010KT P6SM SCT020 BKN100 TEMPO 0916/0918 BKN020 OVC100 BECMG 0916/0918 33010KT FM092100 27012KT P6SM SCT040 BECMG 0922/0924 26015KT FM100300 27015KT P6SM FEW060 BKN080 RMK NXT FCST BY 091800Z